Salt Lake City, Utah
Traffic Map
Current Weather Conditions
Salt Lake City, Utah
Broken Clouds
Broken Clouds
28°
Feels Like: 19°
Wind Chill: 19° Ceiling: 9000
Heat Index: 28° Visibility: 10mi
Dew Point: 20° Wind: 9mph
Humidity: 72% Direction: 150° (SSE)
Pressure: 30.26in Gusts: 0mph
Raw Report DataKSLC 031154Z 15008KT 10SM FEW030 BKN090 M02/M07 A3026 RMK AO2 SLP262 T10221067 11022 21039 58007
Traffic Incident Summary
Active as of:
Severity:
Category:
InformationThere was an issue retrieving the traffic information for this location. Please try a different location or try again shortly.
Advertisements
Track Severe Weather on mobile